Time;durP1;ratioP1;P1;durP2;ratioP2;P2;SDS_P1;SDS_P2;PMS_P1;PMS_P2;Temp;Humidity;BMP_temperature;BMP_pressure;BME280_temperature;BME280_humidity;BME280_pressure;Samples;Min_cycle;Max_cycle;Signal;HPM_P1;HPM_P2
2022/02/24 00:00:20;;;;;;;0.20;0.00;;;11.20;99.90;;;;;;25454647;23;20194;-75
2022/02/24 00:10:24;;;;;;;0.20;0.10;;;10.90;99.90;;;;;;25430007;23;20168;-74
2022/02/24 00:20:29;;;;;;;0.20;0.10;;;11.30;99.90;;;;;;25455527;23;20190;-74
2022/02/24 00:30:33;;;;;;;0.20;0.10;;;11.10;99.90;;;;;;25429152;23;20199;-75
2022/02/24 00:40:38;;;;;;;0.20;0.10;;;11.20;99.90;;;;;;25428142;23;20207;-77
2022/02/24 00:50:43;;;;;;;0.20;0.10;;;11.40;99.90;;;;;;25454208;23;20195;-76
2022/02/24 01:00:50;;;;;;;0.20;0.10;;;11.40;99.90;;;;;;25452910;23;20247;-76
2022/02/24 01:10:54;;;;;;;0.20;0.10;;;11.90;99.90;;;;;;25453391;23;20177;-64
2022/02/24 01:20:59;;;;;;;0.20;0.10;;;12.00;99.90;;;;;;25452034;23;20190;-62
2022/02/24 01:31:03;;;;;;;0.20;0.10;;;12.10;99.90;;;;;;25451812;23;20188;-62
2022/02/24 01:41:08;;;;;;;0.20;0.10;;;12.00;99.90;;;;;;25425469;23;20190;-63
2022/02/24 01:51:12;;;;;;;0.20;0.10;;;11.90;99.90;;;;;;25439206;23;20251;-62
2022/02/24 02:01:18;;;;;;;0.20;0.10;;;12.00;99.90;;;;;;25450606;23;20195;-63
2022/02/24 02:11:22;;;;;;;0.20;0.10;;;12.10;99.90;;;;;;25424322;23;20160;-65
2022/02/24 02:21:31;;;;;;;0.20;0.00;;;11.90;99.90;;;;;;25450072;23;20188;-73
2022/02/24 02:31:35;;;;;;;0.20;0.10;;;11.50;99.90;;;;;;25449575;23;20192;-74
2022/02/24 02:41:43;;;;;;;0.20;0.10;;;11.30;99.90;;;;;;25450250;23;20180;-78
2022/02/24 02:51:47;;;;;;;0.20;0.10;;;11.30;99.90;;;;;;25449194;23;20191;-76
2022/02/24 03:01:52;;;;;;;0.20;0.10;;;11.00;99.90;;;;;;25450404;23;20187;-76
2022/02/24 03:11:57;;;;;;;0.20;0.10;;;11.20;99.90;;;;;;25454083;23;20148;-76
2022/02/24 03:22:02;;;;;;;0.20;0.10;;;11.00;99.90;;;;;;25447719;23;20184;-78
2022/02/24 03:32:06;;;;;;;0.20;0.10;;;11.00;99.90;;;;;;25422367;23;20202;-75
2022/02/24 03:42:12;;;;;;;0.20;0.10;;;10.90;99.90;;;;;;25446680;23;20183;-76
2022/02/24 03:52:16;;;;;;;0.20;0.10;;;11.00;99.90;;;;;;25447743;23;20192;-78
2022/02/24 04:02:21;;;;;;;0.20;0.10;;;10.80;99.90;;;;;;25447695;23;20184;-65
2022/02/24 04:12:25;;;;;;;0.20;0.00;;;10.80;99.90;;;;;;25446635;23;20183;-65
2022/02/24 04:22:30;;;;;;;0.20;0.10;;;10.90;99.90;;;;;;25446161;23;20191;-64
2022/02/24 04:32:34;;;;;;;0.20;0.00;;;10.80;99.90;;;;;;25448914;23;20219;-70
2022/02/24 04:42:39;;;;;;;0.20;0.00;;;10.80;99.90;;;;;;25453478;23;20198;-70
2022/02/24 04:52:43;;;;;;;0.20;0.00;;;10.70;99.90;;;;;;25452119;23;20195;-65
2022/02/24 05:02:48;;;;;;;0.20;0.10;;;10.50;99.90;;;;;;25451227;23;20210;-66
2022/02/24 05:12:55;;;;;;;0.20;0.00;;;10.60;99.90;;;;;;25451330;23;20197;-64
2022/02/24 05:23:01;;;;;;;0.20;0.00;;;10.50;99.90;;;;;;25425572;23;20174;-64
2022/02/24 05:33:05;;;;;;;0.20;0.00;;;10.50;99.90;;;;;;25450350;23;20201;-64
2022/02/24 05:43:10;;;;;;;0.20;0.10;;;10.40;99.90;;;;;;25448908;23;20172;-65
2022/02/24 05:53:14;;;;;;;0.20;0.00;;;10.40;99.90;;;;;;25437693;23;20195;-66
2022/02/24 06:03:19;;;;;;;0.20;0.00;;;10.30;99.90;;;;;;25444890;23;20198;-65
2022/02/24 06:13:26;;;;;;;0.20;0.00;;;10.20;99.90;;;;;;25445069;23;20187;-65
2022/02/24 06:23:31;;;;;;;0.20;0.00;;;10.20;99.90;;;;;;25419225;23;20175;-75
2022/02/24 06:33:35;;;;;;;0.20;0.10;;;10.00;99.90;;;;;;25417323;23;20202;-74
2022/02/24 06:43:40;;;;;;;0.20;0.00;;;9.90;99.90;;;;;;25418863;23;20175;-76
2022/02/24 06:53:44;;;;;;;0.20;0.10;;;9.70;99.90;;;;;;25443275;23;20207;-77
2022/02/24 07:03:51;;;;;;;0.20;0.10;;;9.90;99.90;;;;;;25435253;23;20179;-76
2022/02/24 07:13:54;;;;;;;0.20;0.00;;;10.00;99.90;;;;;;25434155;23;20205;-75
2022/02/24 07:24:08;;;;;;;0.20;0.10;;;10.00;99.90;;;;;;25441089;23;20226;-66
2022/02/24 07:34:11;;;;;;;0.20;0.10;;;10.20;99.90;;;;;;25438267;23;20315;-63
2022/02/24 07:44:17;;;;;;;0.20;0.10;;;10.50;99.90;;;;;;25438417;23;20250;-63
2022/02/24 07:54:21;;;;;;;0.20;0.10;;;11.00;99.90;;;;;;25438635;23;20215;-65
2022/02/24 08:04:26;;;;;;;0.20;0.10;;;11.50;99.90;;;;;;25438131;23;20191;-64
2022/02/24 08:14:30;;;;;;;0.20;0.10;;;12.10;99.90;;;;;;25446287;23;20188;-64
2022/02/24 08:24:36;;;;;;;0.20;0.10;;;12.50;99.90;;;;;;25441648;23;20163;-63
2022/02/24 08:34:39;;;;;;;0.20;0.03;;;13.00;99.90;;;;;;25446977;23;20188;-64
2022/02/24 08:44:44;;;;;;;0.20;0.00;;;13.30;99.90;;;;;;25420577;23;20185;-63
2022/02/24 08:55:08;;;;;;;0.20;0.10;;;13.50;99.90;;;;;;25446393;23;20238;-70
2022/02/24 09:05:14;;;;;;;0.20;0.07;;;13.70;99.90;;;;;;25443059;23;20224;-80
2022/02/24 09:15:18;;;;;;;0.20;0.10;;;13.80;99.90;;;;;;25437314;23;20192;-81
2022/02/24 09:25:24;;;;;;;0.20;0.10;;;13.90;99.90;;;;;;25434416;23;20172;-82
2022/02/24 09:35:28;;;;;;;0.20;0.00;;;14.10;99.90;;;;;;25435823;23;20187;-83
2022/02/24 09:45:33;;;;;;;0.20;0.00;;;14.30;99.90;;;;;;25432860;23;20168;-82
2022/02/24 09:55:37;;;;;;;0.20;0.00;;;14.40;99.90;;;;;;25431256;23;20202;-80
2022/02/24 10:05:47;;;;;;;0.20;0.00;;;14.50;99.90;;;;;;25433454;23;20178;-79
2022/02/24 10:15:55;;;;;;;0.20;0.00;;;14.80;99.90;;;;;;25431229;23;20191;-78
2022/02/24 10:26:04;;;;;;;0.20;0.00;;;15.10;99.90;;;;;;25428550;23;20163;-78
2022/02/24 10:36:14;;;;;;;0.20;0.00;;;15.50;99.90;;;;;;25424833;23;20195;-79
2022/02/24 10:46:20;;;;;;;0.40;0.40;;;15.80;99.90;;;;;;25403671;23;20733;-77
2022/02/24 10:56:26;;;;;;;0.20;0.00;;;15.90;99.90;;;;;;25428016;23;20286;-81
2022/02/24 11:06:34;;;;;;;0.20;0.10;;;16.10;99.90;;;;;;25430202;23;20171;-77
2022/02/24 11:16:38;;;;;;;0.20;0.10;;;16.50;99.90;;;;;;25404307;23;20367;-79
2022/02/24 11:26:50;;;;;;;0.20;0.10;;;16.70;99.90;;;;;;25431676;23;20179;-80
2022/02/24 11:36:54;;;;;;;0.20;0.00;;;17.50;99.90;;;;;;25428638;23;20230;-71
2022/02/24 11:47:03;;;;;;;0.20;0.00;;;18.00;99.90;;;;;;25409023;23;20175;-68
2022/02/24 11:57:29;;;;;;;0.20;0.10;;;18.10;99.90;;;;;;25435721;23;20226;-69
2022/02/24 12:07:34;;;;;;;0.20;0.10;;;18.20;99.90;;;;;;25406694;23;20182;-70
2022/02/24 12:17:47;;;;;;;0.20;0.10;;;19.40;99.90;;;;;;25431622;23;20206;-77
2022/02/24 12:28:04;;;;;;;0.20;0.10;;;19.40;99.90;;;;;;25433020;23;20171;-79
2022/02/24 12:38:13;;;;;;;0.20;0.00;;;18.70;99.90;;;;;;25431211;23;20202;-83
2022/02/24 12:48:19;;;;;;;0.20;0.10;;;18.70;99.90;;;;;;25434227;23;20199;-66
2022/02/24 12:58:24;;;;;;;0.20;0.10;;;19.70;99.90;;;;;;25430498;23;20528;-66
2022/02/24 13:18:53;;;;;;;0.20;0.07;;;19.80;99.90;;;;;;25433910;23;20202;-84
2022/02/24 13:28:59;;;;;;;0.20;0.10;;;20.30;99.90;;;;;;25406543;23;20175;-78
2022/02/24 13:39:02;;;;;;;0.23;0.23;;;20.60;99.90;;;;;;25419540;23;20195;-74
2022/02/24 13:49:11;;;;;;;0.20;0.10;;;20.50;99.90;;;;;;25432242;23;21125;-66
2022/02/24 13:59:21;;;;;;;0.20;0.10;;;19.40;99.90;;;;;;25411358;23;20221;-67
2022/02/24 14:09:27;;;;;;;0.20;0.00;;;20.00;99.90;;;;;;25427935;23;20167;-67
2022/02/24 14:19:32;;;;;;;0.20;0.00;;;20.60;99.90;;;;;;25403160;23;20195;-66
2022/02/24 14:29:40;;;;;;;0.20;0.00;;;22.70;99.90;;;;;;25430330;23;20160;-65
2022/02/24 14:39:45;;;;;;;0.20;0.00;;;21.90;99.90;;;;;;25428559;23;20184;-66
2022/02/24 14:49:50;;;;;;;0.20;0.00;;;20.60;99.90;;;;;;25428264;23;20197;-64
2022/02/24 14:59:58;;;;;;;0.20;0.00;;;20.80;99.90;;;;;;25426020;23;20188;-66
2022/02/24 15:10:04;;;;;;;0.20;0.10;;;20.60;99.90;;;;;;25427333;23;20186;-65
2022/02/24 15:20:16;;;;;;;0.20;0.00;;;19.00;99.90;;;;;;25424485;23;20271;-63
2022/02/24 15:30:22;;;;;;;0.20;0.00;;;18.50;99.90;;;;;;25423008;23;20198;-65
2022/02/24 15:40:26;;;;;;;0.20;0.10;;;17.00;99.90;;;;;;25423610;23;20195;-64
2022/02/24 15:50:32;;;;;;;0.20;0.10;;;16.60;99.90;;;;;;25422919;23;20195;-66
2022/02/24 16:00:36;;;;;;;0.20;0.10;;;18.40;99.90;;;;;;25423310;23;20222;-64
2022/02/24 16:10:42;;;;;;;0.20;0.10;;;17.60;99.90;;;;;;25424031;23;20175;-65
2022/02/24 16:20:46;;;;;;;0.20;0.00;;;16.60;99.90;;;;;;25395816;23;20215;-64
2022/02/24 16:30:51;;;;;;;0.20;0.00;;;16.00;99.90;;;;;;25402580;23;20195;-69
2022/02/24 16:41:16;;;;;;;0.20;0.00;;;16.00;99.90;;;;;;25415766;23;20187;-69
2022/02/24 16:51:22;;;;;;;0.20;0.00;;;15.90;99.90;;;;;;25430045;23;20203;-70
2022/02/24 17:01:26;;;;;;;0.20;0.00;;;15.90;99.90;;;;;;25429420;23;20191;-68
2022/02/24 17:11:31;;;;;;;0.20;0.00;;;15.70;99.90;;;;;;25404277;23;20176;-64
2022/02/24 17:21:40;;;;;;;0.53;0.53;;;15.50;99.90;;;;;;25430726;23;20297;-66
2022/02/24 17:31:45;;;;;;;0.20;0.00;;;15.10;99.90;;;;;;25430962;23;20188;-64
2022/02/24 17:41:49;;;;;;;0.20;0.00;;;14.70;99.90;;;;;;25426923;23;20190;-66
2022/02/24 17:51:55;;;;;;;0.20;0.00;;;14.60;99.90;;;;;;25428460;23;20206;-65
2022/02/24 18:01:59;;;;;;;0.20;0.00;;;14.50;99.90;;;;;;25401189;23;20179;-69
2022/02/24 18:12:05;;;;;;;0.20;0.07;;;14.30;99.90;;;;;;25428072;23;20168;-69
2022/02/24 18:22:09;;;;;;;0.20;0.00;;;14.30;99.90;;;;;;25427002;23;20183;-64
2022/02/24 18:32:15;;;;;;;0.20;0.10;;;13.90;99.90;;;;;;25426992;23;20188;-62
2022/02/24 18:42:19;;;;;;;0.20;0.00;;;13.40;99.90;;;;;;25426820;23;20199;-62
2022/02/24 18:52:24;;;;;;;0.20;0.20;;;13.20;99.90;;;;;;25425861;23;20206;-65
2022/02/24 19:02:28;;;;;;;0.20;0.00;;;13.20;99.90;;;;;;25423506;23;20198;-64
2022/02/24 19:12:33;;;;;;;0.20;0.10;;;12.90;99.90;;;;;;25424294;23;20191;-63
2022/02/24 19:22:37;;;;;;;0.20;0.10;;;12.80;99.90;;;;;;25423763;23;20195;-63
2022/02/24 19:32:43;;;;;;;0.77;0.77;;;12.70;99.90;;;;;;25425147;23;20188;-63
2022/02/24 19:42:46;;;;;;;0.20;0.10;;;12.50;99.90;;;;;;25425035;23;20187;-64
2022/02/24 19:52:52;;;;;;;0.20;0.10;;;12.40;99.90;;;;;;25418776;23;20199;-63
2022/02/24 20:02:56;;;;;;;0.20;0.10;;;12.10;99.90;;;;;;25406210;23;20263;-63
2022/02/24 20:13:05;;;;;;;0.20;0.10;;;12.10;99.90;;;;;;25432916;23;20223;-70
2022/02/24 20:23:09;;;;;;;0.20;0.10;;;12.10;99.90;;;;;;25405452;23;20191;-67
2022/02/24 20:33:15;;;;;;;0.20;0.10;;;12.10;99.90;;;;;;25431651;23;20199;-68
2022/02/24 20:43:19;;;;;;;0.20;0.10;;;12.00;99.90;;;;;;25434825;23;20198;-67
2022/02/24 20:53:24;;;;;;;0.20;0.10;;;11.80;99.90;;;;;;25432783;23;20206;-67
2022/02/24 21:03:29;;;;;;;0.20;0.00;;;11.60;99.90;;;;;;25435382;23;20272;-66
2022/02/24 21:13:34;;;;;;;0.20;0.10;;;11.50;99.90;;;;;;25434492;23;20227;-67
2022/02/24 21:23:39;;;;;;;0.20;0.07;;;11.60;99.90;;;;;;25428359;23;20183;-68
2022/02/24 21:33:44;;;;;;;0.20;0.10;;;11.50;99.90;;;;;;25431849;23;20195;-69
2022/02/24 21:43:48;;;;;;;0.20;0.10;;;11.30;99.90;;;;;;25408985;23;20188;-65
2022/02/24 21:53:53;;;;;;;0.20;0.10;;;11.10;99.90;;;;;;25432725;23;20235;-66
2022/02/24 22:03:57;;;;;;;0.20;0.10;;;10.90;99.90;;;;;;25433562;23;20202;-67
2022/02/24 22:14:02;;;;;;;0.20;0.00;;;10.80;99.90;;;;;;25432217;23;20183;-67
2022/02/24 22:24:07;;;;;;;0.20;0.00;;;10.60;99.90;;;;;;25431603;23;20187;-63
2022/02/24 22:34:12;;;;;;;0.20;0.10;;;10.60;99.90;;;;;;25407871;23;20195;-67
2022/02/24 22:44:16;;;;;;;0.20;0.10;;;10.60;99.90;;;;;;25432574;23;20216;-68
2022/02/24 22:54:21;;;;;;;0.20;0.10;;;10.50;99.90;;;;;;25432785;23;20331;-63
2022/02/24 23:14:48;;;;;;;0.20;0.10;;;10.60;99.90;;;;;;25432111;23;20195;-63
2022/02/24 23:24:52;;;;;;;0.20;0.10;;;10.70;99.90;;;;;;25431651;23;20179;-62
2022/02/24 23:34:57;;;;;;;0.20;0.10;;;10.90;99.90;;;;;;25433652;23;20187;-62
2022/02/24 23:45:01;;;;;;;0.20;0.00;;;11.00;99.90;;;;;;25439326;23;20179;-62
2022/02/24 23:55:07;;;;;;;0.20;0.00;;;11.10;99.90;;;;;;25439017;23;20206;-62
